Ervalia, Brazil
Current Conditions -  °F | °C
As of 6:00 AM on Wednesday 22 Oct 2014 (Local Time) from SBBQ Reporting Station
Haze Haze  
Wind Chill: 54°   Ceiling: Unl
Heat Index: 54°   Visibility: 2.1mi
Dew Point: 50°   Wind: 6mph
Humidity: 88%   Direction: 110°ESE
Pressure: 30.24"   Gusts: NA
Location:  20.84°S, 42.66°W
Report Text: SBBQ 220800Z 11005KT 3500 BR FEW005 12/10 Q1024
Loading
Personal Weather Stations






























Interactive Weather Map
Tropical Storm Tracking
New forecast layout! Learn more

10-Day Weather Forecast

Advertisements
Track Severe Weather on mobile